createdAt,value
2018-06-21T00:00:09.187Z,986.65
2018-06-21T00:01:09.193Z,986.76
2018-06-21T00:02:09.172Z,986.78
2018-06-21T00:03:09.172Z,986.86
2018-06-21T00:04:09.195Z,986.74
2018-06-21T00:05:09.194Z,986.67
2018-06-21T00:06:09.200Z,986.6
2018-06-21T00:07:09.215Z,986.89
2018-06-21T00:08:09.209Z,986.53
2018-06-21T00:09:09.226Z,986.69
2018-06-21T00:10:09.200Z,986.59
2018-06-21T00:11:09.207Z,986.69
2018-06-21T00:12:09.230Z,986.51
2018-06-21T00:13:09.264Z,986.21
2018-06-21T00:14:09.197Z,986.49
2018-06-21T00:15:09.213Z,986.38
2018-06-21T00:16:09.232Z,986.66
2018-06-21T00:17:09.238Z,986.57
2018-06-21T00:18:09.198Z,986.36
2018-06-21T00:19:09.214Z,986.34
2018-06-21T00:20:09.232Z,986.15
2018-06-21T00:21:09.235Z,986.3
2018-06-21T00:22:09.219Z,985.87
2018-06-21T00:23:09.232Z,986.14
2018-06-21T00:24:09.234Z,985.81
2018-06-21T00:25:09.223Z,986.04
2018-06-21T00:26:09.232Z,986.35
2018-06-21T00:27:09.230Z,985.85
2018-06-21T00:28:09.245Z,986
2018-06-21T00:29:09.226Z,986
2018-06-21T00:30:09.255Z,985.96
2018-06-21T00:31:09.238Z,985.77
2018-06-21T00:32:09.261Z,985.84
2018-06-21T00:33:09.277Z,985.95
2018-06-21T00:34:09.264Z,985.89
2018-06-21T00:35:09.231Z,985.69
2018-06-21T00:36:09.259Z,985.6
2018-06-21T00:37:09.248Z,986.06
2018-06-21T00:38:09.274Z,985.77
2018-06-21T00:39:09.251Z,985.66
2018-06-21T00:40:09.262Z,985.71
2018-06-21T00:41:09.253Z,985.7
2018-06-21T00:42:09.277Z,985.76
2018-06-21T00:43:09.284Z,985.75
2018-06-21T00:44:09.264Z,985.72
2018-06-21T00:45:09.278Z,985.63
2018-06-21T00:46:09.282Z,985.8
2018-06-21T00:47:09.282Z,985.7
2018-06-21T00:48:09.267Z,985.98
2018-06-21T00:49:09.280Z,985.95
2018-06-21T00:50:09.278Z,985.91
2018-06-21T00:51:09.288Z,985.51
2018-06-21T00:52:09.274Z,985.74
2018-06-21T00:53:09.297Z,985.75
2018-06-21T00:54:09.289Z,985.83
2018-06-21T00:55:09.306Z,985.84
2018-06-21T00:56:09.293Z,985.85
2018-06-21T00:57:09.293Z,985.7
2018-06-21T00:58:09.314Z,985.47
2018-06-21T00:59:09.289Z,985.82
2018-06-21T01:00:09.346Z,985.47
2018-06-21T01:01:09.320Z,985.48
2018-06-21T01:02:09.284Z,985.57
2018-06-21T01:03:09.313Z,985.77
2018-06-21T01:04:09.320Z,985.4
2018-06-21T01:05:09.293Z,985.77
2018-06-21T01:06:09.330Z,985.75
2018-06-21T01:07:09.309Z,985.67
2018-06-21T01:08:09.335Z,985.65
2018-06-21T01:09:09.321Z,985.64
2018-06-21T01:10:09.312Z,985.44
2018-06-21T01:11:09.314Z,985.36
2018-06-21T01:12:09.309Z,985.29
2018-06-21T01:13:09.301Z,985.44
2018-06-21T01:14:09.310Z,985.24
2018-06-21T01:15:09.318Z,985.41
2018-06-21T01:16:09.347Z,985.12
2018-06-21T01:17:09.332Z,984.96
2018-06-21T01:18:09.308Z,984.73
2018-06-21T01:19:09.319Z,984.82
2018-06-21T01:20:09.328Z,985.01
2018-06-21T01:21:09.319Z,984.8
2018-06-21T01:22:09.329Z,984.72
2018-06-21T01:23:09.310Z,984.65
2018-06-21T01:24:09.345Z,984.52
2018-06-21T01:25:09.349Z,984.41
2018-06-21T01:26:09.360Z,984.37
2018-06-21T01:27:09.334Z,984.42
2018-06-21T01:28:09.373Z,984.31
2018-06-21T01:29:09.355Z,984.16
2018-06-21T01:30:09.346Z,984.18
2018-06-21T01:31:09.367Z,983.87
2018-06-21T01:32:09.348Z,984.13
2018-06-21T01:33:09.353Z,984.21
2018-06-21T01:34:09.360Z,984.3
2018-06-21T01:35:09.379Z,984.11
2018-06-21T01:36:09.349Z,984.29
2018-06-21T01:37:09.356Z,984.34
2018-06-21T01:38:09.370Z,984.5
2018-06-21T01:39:09.368Z,984.32
2018-06-21T01:40:09.348Z,984.28
2018-06-21T01:41:09.376Z,984.22
2018-06-21T01:42:09.366Z,984.4
2018-06-21T01:43:09.387Z,984.28
2018-06-21T01:44:09.404Z,984.55
2018-06-21T01:45:09.431Z,984.62
2018-06-21T01:46:09.369Z,984.61
2018-06-21T01:47:09.399Z,984.31
2018-06-21T01:48:09.385Z,984.6
2018-06-21T01:49:09.387Z,984.49
2018-06-21T01:50:09.412Z,984.57
2018-06-21T01:51:09.365Z,984.55
2018-06-21T01:52:09.399Z,984.31
2018-06-21T01:53:09.435Z,984.45
2018-06-21T01:54:09.415Z,983.95
2018-06-21T01:55:09.403Z,983.94
2018-06-21T01:56:09.462Z,983.8
2018-06-21T01:57:09.411Z,983.72
2018-06-21T01:58:09.388Z,983.63
2018-06-21T01:59:09.393Z,983.79
2018-06-21T02:00:09.402Z,983.6
2018-06-21T02:01:09.413Z,983.39
2018-06-21T02:02:09.442Z,983.76
2018-06-21T02:03:09.419Z,983.68
2018-06-21T02:04:09.411Z,983.32
2018-06-21T02:05:09.432Z,983.53
2018-06-21T02:06:09.413Z,983.45
2018-06-21T02:07:09.393Z,983.46
2018-06-21T02:08:09.466Z,983.55
2018-06-21T02:09:09.417Z,983.9
2018-06-21T02:10:09.480Z,983.86
2018-06-21T02:11:09.444Z,983.65
2018-06-21T02:12:09.433Z,984.22
2018-06-21T02:13:09.437Z,984.01
2018-06-21T02:14:09.424Z,983.81
2018-06-21T02:15:09.423Z,983.73
2018-06-21T02:16:09.436Z,983.77
2018-06-21T02:17:09.435Z,983.88
2018-06-21T02:18:09.446Z,983.95
2018-06-21T02:19:09.425Z,983.98
2018-06-21T02:20:09.456Z,984.05
2018-06-21T02:21:09.464Z,984.05
2018-06-21T02:22:09.461Z,984.15
2018-06-21T02:23:09.432Z,984.11
2018-06-21T02:24:09.422Z,984.11
2018-06-21T02:25:09.436Z,984.27
2018-06-21T02:26:09.453Z,984.2
2018-06-21T02:27:09.448Z,983.88
2018-06-21T02:28:09.467Z,983.95
2018-06-21T02:29:09.494Z,984.22
2018-06-21T02:30:09.477Z,984.2
2018-06-21T02:31:09.481Z,984.47
2018-06-21T02:32:09.486Z,984.11
2018-06-21T02:33:09.484Z,984.17
2018-06-21T02:34:09.582Z,984.4
2018-06-21T02:35:09.470Z,984.24
2018-06-21T02:36:09.458Z,984.13
2018-06-21T02:37:09.493Z,984.1
2018-06-21T02:38:09.472Z,984.41
2018-06-21T02:39:09.478Z,984.46
2018-06-21T02:40:09.462Z,984.33
2018-06-21T02:41:09.470Z,984.13
2018-06-21T02:42:09.500Z,984.09
2018-06-21T02:43:09.485Z,984.17
2018-06-21T02:44:09.478Z,984.38
2018-06-21T02:45:09.492Z,983.99
2018-06-21T02:46:09.491Z,983.97
2018-06-21T02:47:09.481Z,984.35
2018-06-21T02:48:09.519Z,984.33
2018-06-21T02:49:09.497Z,984.22
2018-06-21T02:50:09.543Z,984.49
2018-06-21T02:51:09.486Z,984.44
2018-06-21T02:52:09.504Z,984.58
2018-06-21T02:53:09.498Z,984.39
2018-06-21T02:54:09.490Z,984.47
2018-06-21T02:55:09.614Z,984.35
2018-06-21T02:56:09.503Z,984.47
2018-06-21T02:57:09.526Z,984.1
2018-06-21T02:58:09.526Z,984.25
2018-06-21T02:59:09.530Z,984.4
2018-06-21T03:00:09.515Z,984.25
2018-06-21T03:01:09.525Z,984.35
2018-06-21T03:02:09.501Z,984.24
2018-06-21T03:03:09.502Z,984.29
2018-06-21T03:04:09.509Z,984.2
2018-06-21T03:05:09.527Z,984.2
2018-06-21T03:06:09.521Z,984.07
2018-06-21T03:07:09.531Z,984.02
2018-06-21T03:08:09.537Z,984.03
2018-06-21T03:09:09.540Z,984.3
2018-06-21T03:10:09.546Z,984.47
2018-06-21T03:11:11.223Z,984.28
2018-06-21T03:12:09.530Z,984
2018-06-21T03:13:09.533Z,983.91
2018-06-21T03:14:09.587Z,983.9
2018-06-21T03:15:09.531Z,984
2018-06-21T03:16:09.609Z,984.08
2018-06-21T03:17:10.391Z,983.85
2018-06-21T03:18:10.442Z,983.9
2018-06-21T03:19:09.553Z,983.88
2018-06-21T03:20:09.540Z,983.65
2018-06-21T03:21:09.588Z,984.07
2018-06-21T03:22:09.625Z,983.96
2018-06-21T03:23:09.616Z,984.15
2018-06-21T03:24:09.561Z,984.26
2018-06-21T03:25:09.572Z,984.13
2018-06-21T03:26:09.575Z,984.23
2018-06-21T03:27:09.559Z,984.71
2018-06-21T03:28:09.562Z,984.41
2018-06-21T03:29:09.590Z,984.49
2018-06-21T03:30:09.575Z,984.21
2018-06-21T03:31:09.566Z,984.03
2018-06-21T03:32:09.567Z,984.31
2018-06-21T03:33:09.566Z,984.12
2018-06-21T03:34:09.579Z,984.39
2018-06-21T03:35:09.581Z,984.25
2018-06-21T03:36:09.567Z,984.21
2018-06-21T03:37:09.589Z,984.4
2018-06-21T03:38:09.605Z,984.34
2018-06-21T03:39:09.587Z,984.31
2018-06-21T03:40:09.596Z,984.23
2018-06-21T03:41:09.587Z,984.28
2018-06-21T03:42:09.606Z,984.26
2018-06-21T03:43:09.599Z,984.14
2018-06-21T03:44:09.612Z,984.24
2018-06-21T03:45:09.597Z,984.15
2018-06-21T03:46:09.580Z,984.08
2018-06-21T03:47:09.605Z,984.12
2018-06-21T03:48:09.599Z,983.95
2018-06-21T03:49:09.603Z,983.92
2018-06-21T03:50:09.583Z,983.79
2018-06-21T03:51:09.607Z,984.25
2018-06-21T03:52:09.654Z,983.88
2018-06-21T03:53:09.602Z,984.06
2018-06-21T03:54:09.628Z,984.07
2018-06-21T03:55:09.609Z,983.95
2018-06-21T03:56:09.629Z,984.23
2018-06-21T03:57:09.605Z,984.07
2018-06-21T03:58:09.613Z,984.15
2018-06-21T03:59:09.617Z,984.28
2018-06-21T04:00:09.623Z,984.09
2018-06-21T04:01:09.631Z,983.95
2018-06-21T04:02:09.625Z,983.97
2018-06-21T04:03:09.666Z,984.02
2018-06-21T04:04:09.642Z,984.24
2018-06-21T04:05:09.653Z,984.24
2018-06-21T04:06:09.614Z,984.24
2018-06-21T04:07:09.648Z,984.09
2018-06-21T04:08:09.627Z,984.07
2018-06-21T04:09:09.632Z,984.1
2018-06-21T04:10:09.644Z,984.4
2018-06-21T04:11:09.636Z,984.1
2018-06-21T04:12:09.642Z,984.12
2018-06-21T04:13:09.631Z,984.21
2018-06-21T04:14:09.643Z,984.18
2018-06-21T04:15:09.644Z,984.01
2018-06-21T04:16:09.651Z,984.25
2018-06-21T04:17:09.648Z,984.13
2018-06-21T04:18:09.659Z,984.3
2018-06-21T04:19:09.646Z,984.29
2018-06-21T04:20:09.652Z,984.08
2018-06-21T04:21:09.647Z,984.24
2018-06-21T04:22:09.655Z,984.26
2018-06-21T04:23:09.673Z,984.22
2018-06-21T04:24:09.671Z,984.22
2018-06-21T04:25:09.664Z,984.57
2018-06-21T04:26:09.692Z,984.11
2018-06-21T04:27:09.663Z,984.21
2018-06-21T04:28:09.668Z,984.39
2018-06-21T04:29:09.679Z,984.4
2018-06-21T04:30:09.698Z,984.21
2018-06-21T04:31:09.664Z,984.6
2018-06-21T04:32:09.704Z,984.66
2018-06-21T04:33:09.677Z,985.08
2018-06-21T04:34:09.658Z,984.88
2018-06-21T04:35:09.690Z,984.72
2018-06-21T04:36:09.674Z,984.63
2018-06-21T04:37:09.677Z,984.63
2018-06-21T04:38:09.697Z,984.81
2018-06-21T04:39:09.681Z,984.78
2018-06-21T04:40:09.835Z,984.51
2018-06-21T04:41:09.680Z,984.88
2018-06-21T04:42:09.692Z,984.74
2018-06-21T04:43:09.755Z,984.65
2018-06-21T04:44:09.698Z,984.84
2018-06-21T04:45:09.705Z,984.56
2018-06-21T04:46:09.695Z,984.51
2018-06-21T04:47:09.707Z,984.37
2018-06-21T04:48:09.708Z,984.38
2018-06-21T04:49:09.714Z,984.25
2018-06-21T04:50:09.774Z,984.22
2018-06-21T04:51:09.719Z,983.89
2018-06-21T04:52:09.699Z,984.19
2018-06-21T04:53:09.708Z,983.71
2018-06-21T04:54:09.736Z,983.68
2018-06-21T04:55:10.470Z,983.68
2018-06-21T04:56:09.706Z,983.84
2018-06-21T04:57:09.733Z,983.54
2018-06-21T04:58:09.715Z,983.43
2018-06-21T04:59:09.742Z,983.47
2018-06-21T05:00:10.508Z,983.42
2018-06-21T05:01:09.735Z,983.61
2018-06-21T05:02:09.735Z,983.69
2018-06-21T05:03:09.725Z,983.61
2018-06-21T05:04:09.737Z,983.32
2018-06-21T05:05:09.736Z,983.32
2018-06-21T05:06:09.745Z,983.59
2018-06-21T05:07:09.733Z,983.36
2018-06-21T05:08:09.730Z,983.28
2018-06-21T05:09:09.732Z,983.26
2018-06-21T05:10:09.774Z,983.18
2018-06-21T05:11:09.794Z,983.06
2018-06-21T05:12:09.750Z,982.96
2018-06-21T05:13:09.740Z,983.06
2018-06-21T05:14:09.756Z,983.03
2018-06-21T05:15:09.744Z,983.39
2018-06-21T05:16:09.764Z,983.12
2018-06-21T05:17:09.757Z,983.4
2018-06-21T05:18:09.774Z,983.36
2018-06-21T05:19:09.770Z,983.17
2018-06-21T05:20:09.778Z,983.33
2018-06-21T05:21:09.762Z,983.21
2018-06-21T05:22:09.750Z,983.66
2018-06-21T05:23:09.786Z,983.76
2018-06-21T05:24:09.792Z,983.65
2018-06-21T05:25:09.802Z,983.54
2018-06-21T05:26:09.770Z,983.41
2018-06-21T05:27:09.771Z,983.37
2018-06-21T05:28:09.782Z,983
2018-06-21T05:29:09.771Z,982.95
2018-06-21T05:30:09.828Z,983.17
2018-06-21T05:31:09.876Z,982.58
2018-06-21T05:32:09.800Z,982.79
2018-06-21T05:33:09.787Z,982.77
2018-06-21T05:34:09.771Z,982.51
2018-06-21T05:35:09.784Z,982.43
2018-06-21T05:36:09.782Z,982.13
2018-06-21T05:37:09.793Z,982
2018-06-21T05:38:09.792Z,982.09
2018-06-21T05:39:09.807Z,981.81
2018-06-21T05:40:09.791Z,982.1
2018-06-21T05:41:09.800Z,982.49
2018-06-21T05:42:09.801Z,982.38
2018-06-21T05:43:09.851Z,982.18
2018-06-21T05:44:09.820Z,982.51
2018-06-21T05:45:09.825Z,982.52
2018-06-21T05:46:09.791Z,982.53
2018-06-21T05:47:09.824Z,982.35
2018-06-21T05:48:09.820Z,982.49
2018-06-21T05:49:09.815Z,982.4
2018-06-21T05:50:09.849Z,982.48
2018-06-21T05:51:09.852Z,982.39
2018-06-21T05:52:09.836Z,982.49
2018-06-21T05:53:09.814Z,982.52
2018-06-21T05:54:09.822Z,982.56
2018-06-21T05:55:09.831Z,982.35
2018-06-21T05:56:09.809Z,982.6
2018-06-21T05:57:09.874Z,982.41
2018-06-21T05:58:09.824Z,982.63
2018-06-21T05:59:09.829Z,982.67
2018-06-21T06:00:09.810Z,983.09
2018-06-21T06:01:09.842Z,982.56
2018-06-21T06:02:09.850Z,982.62
2018-06-21T06:03:09.825Z,982.89
2018-06-21T06:04:09.831Z,982.68
2018-06-21T06:05:09.841Z,982.84
2018-06-21T06:06:09.856Z,982.85
2018-06-21T06:07:09.829Z,982.75
2018-06-21T06:08:09.873Z,982.78
2018-06-21T06:09:09.878Z,982.76
2018-06-21T06:10:09.856Z,982.79
2018-06-21T06:11:09.866Z,983.1
2018-06-21T06:12:09.861Z,982.97
2018-06-21T06:13:09.841Z,983.1
2018-06-21T06:14:09.874Z,983.1
2018-06-21T06:15:09.852Z,983.07
2018-06-21T06:16:09.875Z,983.18
2018-06-21T06:17:09.866Z,983.14
2018-06-21T06:18:09.889Z,983.23
2018-06-21T06:19:09.862Z,983.25
2018-06-21T06:20:09.891Z,982.88
2018-06-21T06:21:09.880Z,983.02
2018-06-21T06:22:09.883Z,983.23
2018-06-21T06:23:09.881Z,983.24
2018-06-21T06:24:09.912Z,983.24
2018-06-21T06:25:09.876Z,983.61
2018-06-21T06:26:09.881Z,983.42
2018-06-21T06:27:09.892Z,983.61
2018-06-21T06:28:09.886Z,983.73
2018-06-21T06:29:09.869Z,983.36
2018-06-21T06:30:10.522Z,983.22
2018-06-21T06:31:09.914Z,983.41
2018-06-21T06:32:09.888Z,983.31
2018-06-21T06:33:09.912Z,983.97
2018-06-21T06:34:09.930Z,983.57
2018-06-21T06:35:09.912Z,983.73
2018-06-21T06:36:09.893Z,983.57
2018-06-21T06:37:09.955Z,983.43
2018-06-21T06:38:10.243Z,983.93
2018-06-21T06:39:09.889Z,983.32
2018-06-21T06:40:09.901Z,983.57
2018-06-21T06:41:09.900Z,983.28
2018-06-21T06:42:09.929Z,983.44
2018-06-21T06:43:09.975Z,983.15
2018-06-21T06:44:09.934Z,983.65
2018-06-21T06:45:09.922Z,983.73
2018-06-21T06:46:09.957Z,983.37
2018-06-21T06:47:09.909Z,983.28
2018-06-21T06:48:09.921Z,983.43
2018-06-21T06:49:09.920Z,983.42
2018-06-21T06:50:09.936Z,983.56
2018-06-21T06:51:09.918Z,983.47
2018-06-21T06:53:28.816Z,983.45
2018-06-21T06:54:28.796Z,983.08
2018-06-21T06:55:28.760Z,983.64
2018-06-21T06:56:28.770Z,983.5
2018-06-21T06:57:28.776Z,983.19
2018-06-21T06:58:28.784Z,983.28
2018-06-21T06:59:28.766Z,983.28
2018-06-21T07:00:28.768Z,983.23
2018-06-21T07:01:28.781Z,983.37
2018-06-21T07:02:28.782Z,983.49
2018-06-21T07:03:28.778Z,983.34
2018-06-21T07:04:28.786Z,983.37
2018-06-21T07:05:28.792Z,983.13
2018-06-21T07:06:28.798Z,983.2
2018-06-21T07:07:28.817Z,983.07
2018-06-21T07:08:28.874Z,983.25
2018-06-21T07:09:28.817Z,983.23
2018-06-21T07:10:28.806Z,983.33
2018-06-21T07:11:28.786Z,983.13
2018-06-21T07:12:28.787Z,982.89
2018-06-21T07:13:28.799Z,983.03
2018-06-21T07:14:28.842Z,983.15
2018-06-21T07:15:28.810Z,983.03
2018-06-21T07:16:28.814Z,983.06
2018-06-21T07:17:28.806Z,982.62
2018-06-21T07:18:28.802Z,983.16
2018-06-21T07:19:28.828Z,983.34
2018-06-21T07:20:28.853Z,982.68
2018-06-21T07:21:28.825Z,982.82
2018-06-21T07:22:28.808Z,982.58
2018-06-21T07:23:28.841Z,982.67
2018-06-21T07:24:28.819Z,982.73
2018-06-21T07:25:28.823Z,982.93
2018-06-21T07:26:28.833Z,982.43
2018-06-21T07:27:28.837Z,982.63
2018-06-21T07:28:28.837Z,982.49
2018-06-21T07:29:28.823Z,982.6
2018-06-21T07:30:28.833Z,982.6
2018-06-21T07:31:28.804Z,982.49
2018-06-21T07:32:28.852Z,982.36
2018-06-21T07:33:28.880Z,982.81
2018-06-21T07:34:28.837Z,982.67
2018-06-21T07:35:28.839Z,982.38
2018-06-21T07:36:28.848Z,982.67
2018-06-21T07:37:28.855Z,982.57
2018-06-21T07:38:28.837Z,982.66
2018-06-21T07:39:28.836Z,982.55
2018-06-21T07:40:28.874Z,982.55
2018-06-21T07:41:28.845Z,982.43
2018-06-21T07:42:28.840Z,982.52
2018-06-21T07:43:28.848Z,982.43
2018-06-21T07:44:28.849Z,982.46
2018-06-21T07:45:28.849Z,982.73
2018-06-21T07:46:28.853Z,982.66
2018-06-21T07:47:28.861Z,982.45
2018-06-21T07:48:28.868Z,982.38
2018-06-21T07:49:28.878Z,982.59
2018-06-21T07:50:28.863Z,982.55
2018-06-21T07:51:28.886Z,982.49
2018-06-21T07:52:28.852Z,982.74
2018-06-21T07:53:28.879Z,982.34
2018-06-21T07:54:28.879Z,982.6
2018-06-21T07:55:28.880Z,982.51
2018-06-21T07:56:28.871Z,982.19
2018-06-21T07:57:28.884Z,982.29
2018-06-21T07:58:28.891Z,982.44
2018-06-21T07:59:28.885Z,982.31
2018-06-21T08:00:28.894Z,982.31
2018-06-21T08:01:28.900Z,981.91
2018-06-21T08:02:28.910Z,982.27
2018-06-21T08:03:28.887Z,982.36
2018-06-21T08:04:28.917Z,982.12
2018-06-21T08:05:28.908Z,981.96
2018-06-21T08:06:28.909Z,982.19
2018-06-21T08:07:28.916Z,982
2018-06-21T08:08:28.906Z,982.32
2018-06-21T08:09:28.901Z,982.37
2018-06-21T08:10:28.908Z,981.85
2018-06-21T08:11:28.916Z,982.14
2018-06-21T08:12:28.922Z,981.96
2018-06-21T08:13:28.927Z,981.97
2018-06-21T08:14:28.921Z,981.96
2018-06-21T08:15:28.899Z,981.53
2018-06-21T08:16:28.917Z,981.75
2018-06-21T08:17:28.902Z,981.79
2018-06-21T08:18:28.909Z,981.92
2018-06-21T08:19:28.968Z,981.64
2018-06-21T08:20:28.935Z,981.63
2018-06-21T08:21:28.908Z,981.66
2018-06-21T08:22:28.909Z,981.82
2018-06-21T08:23:28.916Z,981.67
2018-06-21T08:24:28.956Z,981.68
2018-06-21T08:25:28.905Z,981.61
2018-06-21T08:26:28.935Z,981.75
2018-06-21T08:27:28.922Z,981.55
2018-06-21T08:28:28.927Z,981.56
2018-06-21T08:29:28.958Z,981.49
2018-06-21T08:30:28.938Z,981.58
2018-06-21T08:31:28.944Z,981.64
2018-06-21T08:32:28.932Z,981.14
2018-06-21T08:33:28.954Z,981.2
2018-06-21T08:34:28.944Z,981.42
2018-06-21T08:35:28.948Z,981.32
2018-06-21T08:36:28.947Z,981.14
2018-06-21T08:37:28.992Z,981.5
2018-06-21T08:38:28.949Z,981.18
2018-06-21T08:39:28.941Z,981.14
2018-06-21T08:40:28.957Z,981.12
2018-06-21T08:41:28.960Z,981.16
2018-06-21T08:42:28.988Z,981.14
2018-06-21T08:43:28.955Z,981.21
2018-06-21T08:44:28.960Z,981.26
2018-06-21T08:45:28.979Z,981.23
2018-06-21T08:46:28.963Z,981.27
2018-06-21T08:47:28.976Z,981.26
2018-06-21T08:48:29.000Z,981.22
2018-06-21T08:49:28.998Z,981.26
2018-06-21T08:50:28.994Z,981.25
2018-06-21T08:51:28.999Z,981.13
2018-06-21T08:52:28.976Z,981.07
2018-06-21T08:53:28.995Z,980.8
2018-06-21T08:54:29.004Z,980.59
2018-06-21T08:55:28.983Z,980.67
2018-06-21T08:56:28.987Z,980.61
2018-06-21T08:57:29.081Z,980.48
2018-06-21T08:58:29.000Z,981.14
2018-06-21T08:59:28.996Z,980.79
2018-06-21T09:00:28.992Z,980.72
2018-06-21T09:01:29.036Z,980.81
2018-06-21T09:02:29.028Z,980.88
2018-06-21T09:03:29.022Z,980.63
2018-06-21T09:04:29.006Z,980.81
2018-06-21T09:05:29.011Z,980.82
2018-06-21T09:06:28.989Z,980.41
2018-06-21T09:07:29.033Z,980.37
2018-06-21T09:08:29.007Z,980.7
2018-06-21T09:09:29.052Z,980.44
2018-06-21T09:10:28.990Z,980.6
2018-06-21T09:11:29.007Z,980.19
2018-06-21T09:12:29.078Z,980.16
2018-06-21T09:13:29.023Z,980.37
2018-06-21T09:14:29.044Z,980.29
2018-06-21T09:15:29.191Z,980.18
2018-06-21T09:16:29.012Z,980.19
2018-06-21T09:17:29.059Z,980.14
2018-06-21T09:18:29.017Z,980.03
2018-06-21T09:19:29.023Z,980.13
2018-06-21T09:23:57.442Z,980.09
2018-06-21T09:24:57.453Z,979.93
2018-06-21T09:25:57.424Z,980.25
2018-06-21T09:26:57.415Z,979.91
2018-06-21T09:27:57.416Z,979.99
2018-06-21T09:28:57.431Z,979.43
2018-06-21T09:29:57.429Z,979.78
2018-06-21T09:30:57.410Z,979.94
2018-06-21T09:31:57.424Z,979.69
2018-06-21T09:32:57.461Z,979.97
2018-06-21T09:33:57.457Z,979.81
2018-06-21T09:34:57.424Z,980.04
2018-06-21T09:35:57.451Z,979.66
2018-06-21T09:36:57.431Z,979.85
2018-06-21T09:37:57.435Z,979.88
2018-06-21T09:42:26.545Z,979.54
2018-06-21T09:43:26.522Z,979.69
2018-06-21T09:44:26.529Z,979.98
2018-06-21T09:45:26.536Z,979.52
2018-06-21T09:46:33.868Z,979.87
2018-06-21T09:47:26.552Z,979.8
2018-06-21T09:48:26.556Z,979.76
2018-06-21T09:49:26.565Z,979.74
2018-06-21T09:50:26.571Z,979.76
2018-06-21T09:51:26.552Z,979.94
2018-06-21T09:52:26.652Z,979.9
2018-06-21T09:53:26.592Z,979.7
2018-06-21T09:54:26.591Z,979.79
2018-06-21T09:55:26.556Z,979.45
2018-06-21T09:56:26.561Z,979.5
2018-06-21T09:57:26.563Z,979.44
2018-06-21T09:58:26.621Z,979.44
2018-06-21T09:59:26.560Z,979.6
2018-06-21T10:00:26.586Z,979.7
2018-06-21T10:01:26.599Z,979.47
2018-06-21T10:02:26.608Z,979.69
2018-06-21T10:03:26.570Z,979.45
2018-06-21T10:04:26.585Z,979.29
2018-06-21T10:05:26.570Z,979.45
2018-06-21T10:06:26.619Z,979.49
2018-06-21T10:07:26.577Z,979.39
2018-06-21T10:08:26.603Z,979.79
2018-06-21T10:09:26.598Z,979.59
2018-06-21T10:10:26.576Z,979.7
2018-06-21T10:11:26.651Z,979.69
2018-06-21T10:12:26.579Z,979.61
2018-06-21T10:13:26.619Z,979.7
2018-06-21T10:14:26.592Z,979.7
2018-06-21T10:15:26.632Z,979.32
2018-06-21T10:16:26.624Z,979.62
2018-06-21T10:17:26.636Z,979.47
2018-06-21T10:18:26.604Z,979.38
2018-06-21T10:19:26.638Z,979.53
2018-06-21T10:20:26.710Z,979.55
2018-06-21T10:21:26.641Z,979.45
2018-06-21T10:22:26.722Z,979.46
2018-06-21T10:23:26.612Z,979.87
2018-06-21T10:24:26.608Z,979.83
2018-06-21T10:25:26.636Z,979.7
2018-06-21T10:26:26.620Z,979.71
2018-06-21T10:27:26.663Z,979.66
2018-06-21T10:28:26.672Z,979.46
2018-06-21T10:29:26.637Z,979.45
2018-06-21T10:30:26.682Z,980.08
2018-06-21T10:31:26.610Z,979.63
2018-06-21T10:32:26.618Z,979.78
2018-06-21T10:33:26.618Z,979.32
2018-06-21T10:34:26.655Z,979.31
2018-06-21T10:35:26.633Z,979.29
2018-06-21T10:36:26.637Z,979.66
2018-06-21T10:37:26.662Z,979.44
2018-06-21T10:38:26.699Z,979.31
2018-06-21T10:39:26.666Z,979.45
2018-06-21T10:40:26.646Z,979.55
2018-06-21T10:41:26.653Z,979.61
2018-06-21T10:42:26.660Z,979.37
2018-06-21T10:43:26.666Z,979.43
2018-06-21T10:44:26.634Z,979.55
2018-06-21T10:45:26.641Z,979.6
2018-06-21T10:46:26.646Z,979.63
2018-06-21T10:47:26.690Z,979.2
2018-06-21T10:48:26.691Z,979.47
2018-06-21T10:49:26.666Z,979.89
2018-06-21T10:50:26.702Z,979.5
2018-06-21T10:51:26.678Z,979.58
2018-06-21T10:52:26.665Z,979.21
2018-06-21T10:53:26.680Z,979.72
2018-06-21T10:54:26.709Z,979.67
2018-06-21T10:55:26.709Z,979.76
2018-06-21T10:56:26.671Z,979.68
2018-06-21T10:57:26.680Z,979.63
2018-06-21T10:58:26.708Z,979.44
2018-06-21T10:59:26.700Z,979.53
2018-06-21T11:00:26.689Z,979.67
2018-06-21T11:01:26.694Z,979.56
2018-06-21T11:02:26.690Z,979.36
2018-06-21T11:03:26.683Z,979.78
2018-06-21T11:04:26.724Z,979.48
2018-06-21T11:05:26.697Z,979.39
2018-06-21T11:06:26.720Z,979.53
2018-06-21T11:07:26.738Z,979.34
2018-06-21T11:08:26.744Z,979.51
2018-06-21T11:09:26.704Z,979.27
2018-06-21T11:10:26.704Z,979.25
2018-06-21T11:11:26.693Z,979.17
2018-06-21T11:12:26.691Z,979.32
2018-06-21T11:13:26.701Z,978.92
2018-06-21T11:14:26.706Z,979.28
2018-06-21T11:15:26.711Z,979.22
2018-06-21T11:16:26.692Z,979.06
2018-06-21T11:17:26.692Z,978.93
2018-06-21T11:18:26.711Z,978.85
2018-06-21T11:19:26.715Z,979.04
2018-06-21T11:20:26.717Z,979.14
2018-06-21T11:21:26.743Z,979.21
2018-06-21T11:22:26.711Z,978.94
2018-06-21T11:23:26.730Z,979.04
2018-06-21T11:24:26.720Z,979.36
2018-06-21T11:25:26.753Z,979.03
2018-06-21T11:26:26.728Z,979.09
2018-06-21T11:27:26.735Z,979.58
2018-06-21T11:28:26.727Z,979.32
2018-06-21T11:29:26.725Z,979.43
2018-06-21T11:30:26.783Z,979.19
2018-06-21T11:31:26.747Z,979.38
2018-06-21T11:32:26.720Z,979.41
2018-06-21T11:33:26.724Z,979.51
2018-06-21T11:34:26.735Z,979.54
2018-06-21T11:35:26.767Z,979.64
2018-06-21T11:36:26.782Z,979.56
2018-06-21T11:37:26.752Z,979.45
2018-06-21T11:38:26.741Z,979.52
2018-06-21T11:39:26.742Z,979.61
2018-06-21T11:43:55.548Z,980.14
2018-06-21T11:44:55.418Z,980.17
2018-06-21T11:45:55.424Z,980.11
2018-06-21T11:46:55.436Z,980.29
2018-06-21T11:47:55.435Z,980.34
2018-06-21T11:48:55.470Z,980.06
2018-06-21T11:49:55.494Z,980.23
2018-06-21T11:50:55.457Z,980.35
2018-06-21T11:51:55.435Z,980.1
2018-06-21T11:52:55.469Z,980.29
2018-06-21T11:53:55.455Z,980.29
2018-06-21T11:54:55.485Z,980.42
2018-06-21T11:55:55.488Z,980.18
2018-06-21T11:56:55.466Z,980.06
2018-06-21T11:57:55.481Z,980.35
2018-06-21T11:58:55.557Z,980.29
2018-06-21T11:59:55.465Z,980.29
2018-06-21T12:00:55.466Z,980.12
2018-06-21T12:01:55.559Z,980.34
2018-06-21T12:02:55.503Z,980.31
2018-06-21T12:03:56.022Z,980.41
2018-06-21T12:04:55.477Z,980.55
2018-06-21T12:05:55.526Z,980.59
2018-06-21T12:06:55.486Z,980.35
2018-06-21T12:07:55.467Z,980.61
2018-06-21T12:08:55.569Z,980.48
2018-06-21T12:09:55.479Z,980.47
2018-06-21T12:10:55.543Z,980.62
2018-06-21T12:11:55.486Z,980.78
2018-06-21T12:12:55.492Z,980.59
2018-06-21T12:13:55.505Z,980.76
2018-06-21T12:15:11.977Z,980.83
2018-06-21T12:16:11.881Z,980.59
2018-06-21T12:17:11.886Z,980.74
2018-06-21T12:18:11.892Z,980.69
2018-06-21T12:19:12.054Z,980.68
2018-06-21T12:20:12.134Z,980.85
2018-06-21T12:21:11.889Z,980.97
2018-06-21T12:22:11.924Z,980.99
2018-06-21T12:23:11.901Z,980.8
2018-06-21T12:24:11.894Z,980.71
2018-06-21T12:25:11.934Z,980.75
2018-06-21T12:26:12.044Z,980.86
2018-06-21T12:27:11.990Z,980.76
2018-06-21T12:28:11.932Z,980.94
2018-06-21T12:29:11.928Z,981.08
2018-06-21T12:30:11.935Z,980.44
2018-06-21T12:31:11.941Z,980.82
2018-06-21T12:32:12.004Z,980.7
2018-06-21T12:33:11.933Z,980.68
2018-06-21T12:34:11.912Z,980.49
2018-06-21T12:35:11.922Z,980.82
2018-06-21T12:36:11.925Z,980.41
2018-06-21T12:37:11.936Z,980.78
2018-06-21T12:38:12.102Z,980.58
2018-06-21T12:39:12.453Z,980.56
2018-06-21T12:40:11.949Z,980.49
2018-06-21T12:41:11.942Z,980.71
2018-06-21T12:42:12.141Z,980.46
2018-06-21T12:43:11.930Z,980.54